createdAt,value
2018-11-14T00:00:28.126Z,10.07
2018-11-14T00:02:57.773Z,10.02
2018-11-14T00:05:27.074Z,10.00
2018-11-14T00:07:56.252Z,10.03
2018-11-14T00:10:25.277Z,10.05
2018-11-14T00:12:54.432Z,10.09
2018-11-14T00:15:25.360Z,10.02
2018-11-14T00:17:54.674Z,9.98
2018-11-14T00:20:23.849Z,9.98
2018-11-14T00:22:53.222Z,10.07
2018-11-14T00:25:22.349Z,10.00
2018-11-14T00:27:51.585Z,9.94
2018-11-14T00:30:26.688Z,9.79
2018-11-14T00:32:55.781Z,9.73
2018-11-14T00:35:24.837Z,9.66
2018-11-14T00:37:54.336Z,9.78
2018-11-14T00:40:23.560Z,9.87
2018-11-14T00:42:52.762Z,10.00
2018-11-14T00:45:22.860Z,9.98
2018-11-14T00:47:52.306Z,9.95
2018-11-14T00:50:21.812Z,9.94
2018-11-14T00:52:51.081Z,9.98
2018-11-14T00:55:22.257Z,10.01
2018-11-14T00:57:52.830Z,9.99
2018-11-14T01:00:23.450Z,10.03
2018-11-14T01:02:53.061Z,9.99
2018-11-14T01:05:22.333Z,10.02
2018-11-14T01:07:51.424Z,10.03
2018-11-14T01:10:21.865Z,10.03
2018-11-14T01:12:51.745Z,9.97
2018-11-14T01:15:22.076Z,9.95
2018-11-14T01:17:51.334Z,9.92
2018-11-14T01:20:21.592Z,10.01
2018-11-14T01:22:50.798Z,10.06
2018-11-14T01:25:20.199Z,10.07
2018-11-14T01:27:49.513Z,10.08
2018-11-14T01:30:19.812Z,10.10
2018-11-14T01:32:49.399Z,10.06
2018-11-14T01:35:19.143Z,10.08
2018-11-14T01:37:48.498Z,10.07
2018-11-14T01:40:19.890Z,10.09
2018-11-14T01:42:50.056Z,10.09
2018-11-14T01:45:19.313Z,10.08
2018-11-14T01:47:48.469Z,10.05
2018-11-14T01:50:17.680Z,10.06
2018-11-14T01:52:46.824Z,10.06
2018-11-14T01:55:17.066Z,10.06
2018-11-14T01:57:46.157Z,10.01
2018-11-14T02:00:17.551Z,9.97
2018-11-14T02:02:46.713Z,9.96
2018-11-14T02:05:15.953Z,10.00
2018-11-14T02:07:45.095Z,10.03
2018-11-14T02:10:16.057Z,10.03
2018-11-14T02:12:45.797Z,10.00
2018-11-14T02:15:19.805Z,9.99
2018-11-14T02:17:49.090Z,9.98
2018-11-14T02:20:18.304Z,9.94
2018-11-14T02:22:47.760Z,9.91
2018-11-14T02:25:17.332Z,9.90
2018-11-14T02:27:46.504Z,9.94
2018-11-14T02:30:18.299Z,9.90
2018-11-14T02:32:47.468Z,9.89
2018-11-14T02:35:16.588Z,9.91
2018-11-14T02:37:46.399Z,9.93
2018-11-14T02:40:16.852Z,9.93
2018-11-14T02:42:46.032Z,9.87
2018-11-14T02:45:15.579Z,9.88
2018-11-14T02:47:44.667Z,9.91
2018-11-14T02:50:15.711Z,9.94
2018-11-14T02:52:44.964Z,9.91
2018-11-14T02:55:15.408Z,9.92
2018-11-14T02:57:44.926Z,9.89
2018-11-14T03:00:17.567Z,9.89
2018-11-14T03:02:46.900Z,9.89
2018-11-14T03:05:16.147Z,9.89
2018-11-14T03:07:45.592Z,9.86
2018-11-14T03:10:18.018Z,9.89
2018-11-14T03:12:47.348Z,9.86
2018-11-14T03:15:18.894Z,9.82
2018-11-14T03:17:48.473Z,9.79
2018-11-14T03:20:19.260Z,9.77
2018-11-14T03:22:48.708Z,9.75
2018-11-14T03:25:17.839Z,9.71
2018-11-14T03:27:46.843Z,9.73
2018-11-14T03:30:17.467Z,9.74
2018-11-14T03:32:46.614Z,9.76
2018-11-14T03:35:15.982Z,9.79
2018-11-14T03:37:45.249Z,9.79
2018-11-14T03:40:15.958Z,9.80
2018-11-14T03:42:45.767Z,9.79
2018-11-14T03:45:15.616Z,9.83
2018-11-14T03:47:44.742Z,9.72
2018-11-14T03:50:13.899Z,9.75
2018-11-14T03:52:42.997Z,9.76
2018-11-14T03:55:12.184Z,9.77
2018-11-14T03:57:41.750Z,9.81
2018-11-14T04:00:15.139Z,9.85
2018-11-14T04:02:45.336Z,9.94
2018-11-14T04:05:14.490Z,9.95
2018-11-14T04:07:43.781Z,9.96
2018-11-14T04:10:13.772Z,9.97
2018-11-14T04:12:43.238Z,9.88
2018-11-14T04:15:13.695Z,9.88
2018-11-14T04:17:42.956Z,9.91
2018-11-14T04:20:16.079Z,9.82
2018-11-14T04:22:46.323Z,9.71
2018-11-14T04:25:17.310Z,9.80
2018-11-14T04:27:47.138Z,9.78
2018-11-14T04:30:22.328Z,9.80
2018-11-14T04:32:51.729Z,9.75
2018-11-14T04:35:21.457Z,9.73
2018-11-14T04:37:51.084Z,9.80
2018-11-14T04:40:23.101Z,9.82
2018-11-14T04:42:52.248Z,9.88
2018-11-14T04:45:25.655Z,9.80
2018-11-14T04:47:54.977Z,9.81
2018-11-14T04:50:26.222Z,9.82
2018-11-14T04:52:55.959Z,9.84
2018-11-14T04:55:25.866Z,9.85
2018-11-14T04:57:55.001Z,9.88
2018-11-14T05:00:25.275Z,9.91
2018-11-14T05:02:54.381Z,9.90
2018-11-14T05:05:24.588Z,9.83
2018-11-14T05:07:54.197Z,9.79
2018-11-14T05:10:24.568Z,9.73
2018-11-14T05:13:56.393Z,9.80
2018-11-14T05:16:25.657Z,9.84
2018-11-14T05:18:54.979Z,9.86
2018-11-14T05:21:24.180Z,9.86
2018-11-14T05:23:53.252Z,9.83
2018-11-14T05:26:22.472Z,9.79
2018-11-14T05:28:51.727Z,9.74
2018-11-14T05:31:20.730Z,9.77
2018-11-14T05:33:49.779Z,9.77
2018-11-14T05:36:19.051Z,9.81
2018-11-14T05:38:48.357Z,9.82
2018-11-14T05:41:17.633Z,9.85
2018-11-14T05:43:46.910Z,9.83
2018-11-14T05:46:16.320Z,9.83
2018-11-14T05:48:45.331Z,9.91
2018-11-14T05:51:15.832Z,10.03
2018-11-14T05:53:45.142Z,10.08
2018-11-14T05:56:14.393Z,10.15
2018-11-14T05:58:44.116Z,10.19
2018-11-14T06:01:13.366Z,10.31
2018-11-14T06:03:42.518Z,10.43
2018-11-14T06:06:12.196Z,10.47
2018-11-14T06:08:41.568Z,10.53
2018-11-14T06:11:10.886Z,10.53
2018-11-14T06:13:40.857Z,10.41
2018-11-14T06:16:10.029Z,10.47
2018-11-14T06:18:39.336Z,10.49
2018-11-14T06:21:08.819Z,10.51
2018-11-14T06:23:38.160Z,10.58
2018-11-14T06:26:07.383Z,10.62
2018-11-14T06:28:37.206Z,10.63
2018-11-14T06:31:07.772Z,10.63
2018-11-14T06:34:40.507Z,10.69
2018-11-14T06:37:10.296Z,10.59
2018-11-14T06:39:39.976Z,10.50
2018-11-14T06:42:09.213Z,10.60
2018-11-14T06:44:38.760Z,10.58
2018-11-14T06:47:07.959Z,10.63
2018-11-14T06:49:37.609Z,10.63
2018-11-14T06:52:06.868Z,10.67
2018-11-14T06:54:36.083Z,10.69
2018-11-14T06:57:05.363Z,10.71
2018-11-14T06:59:34.772Z,10.75
2018-11-14T07:02:03.975Z,10.80
2018-11-14T07:04:33.195Z,10.86
2018-11-14T07:07:02.578Z,10.90
2018-11-14T07:09:32.371Z,10.94
2018-11-14T07:12:04.571Z,11.03
2018-11-14T07:14:34.484Z,11.13
2018-11-14T07:17:04.350Z,11.15
2018-11-14T07:19:33.816Z,11.13
2018-11-14T07:22:03.069Z,11.17
2018-11-14T07:24:32.521Z,11.19
2018-11-14T07:27:02.076Z,11.19
2018-11-14T07:29:31.172Z,11.28
2018-11-14T07:32:01.183Z,11.42
2018-11-14T07:34:30.376Z,11.52
2018-11-14T07:37:00.780Z,11.68
2018-11-14T07:39:30.209Z,11.59
2018-11-14T07:41:59.515Z,11.61
2018-11-14T07:44:28.755Z,11.74
2018-11-14T07:46:58.068Z,11.97
2018-11-14T07:49:27.378Z,12.13
2018-11-14T07:51:56.557Z,12.12
2018-11-14T07:54:25.806Z,11.98
2018-11-14T07:56:55.063Z,11.91
2018-11-14T07:59:24.430Z,11.83
2018-11-14T08:02:02.707Z,11.85
2018-11-14T08:07:52.286Z,11.62
2018-11-14T08:10:21.722Z,11.35
2018-11-14T08:12:51.311Z,11.64
2018-11-14T08:15:20.567Z,11.86
2018-11-14T08:17:49.820Z,12.02
2018-11-14T08:20:19.198Z,11.99
2018-11-14T08:22:48.425Z,12.24
2018-11-14T08:25:17.686Z,12.31
2018-11-14T08:27:47.126Z,12.51
2018-11-14T08:30:16.588Z,12.65
2018-11-14T08:32:45.897Z,12.72
2018-11-14T08:35:15.681Z,12.99
2018-11-14T08:37:44.644Z,13.39
2018-11-14T08:40:14.020Z,13.60
2018-11-14T08:42:43.157Z,13.62
2018-11-14T08:45:13.444Z,13.16
2018-11-14T08:47:44.818Z,12.52
2018-11-14T08:50:16.219Z,12.41
2018-11-14T08:52:46.590Z,12.66
2018-11-14T08:55:16.249Z,12.69
2018-11-14T08:57:46.936Z,12.54
2018-11-14T09:00:20.764Z,12.72
2018-11-14T09:02:50.664Z,13.12
2018-11-14T09:05:20.609Z,13.47
2018-11-14T09:07:50.339Z,13.71
2018-11-14T09:10:23.288Z,13.77
2018-11-14T09:12:52.602Z,13.95
2018-11-14T09:15:23.196Z,14.04
2018-11-14T09:17:52.613Z,13.94
2018-11-14T09:20:25.928Z,13.36
2018-11-14T09:22:55.671Z,13.24
2018-11-14T09:25:28.959Z,12.90
2018-11-14T09:27:59.280Z,13.08
2018-11-14T09:30:28.612Z,13.29
2018-11-14T09:32:57.941Z,13.45
2018-11-14T09:35:28.272Z,13.55
2018-11-14T09:38:02.020Z,13.17
2018-11-14T09:40:31.648Z,13.19
2018-11-14T09:43:01.187Z,13.21
2018-11-14T09:45:32.408Z,13.48
2018-11-14T09:48:03.133Z,13.67
2018-11-14T09:50:33.160Z,13.77
2018-11-14T09:53:04.516Z,13.66
2018-11-14T09:55:33.972Z,13.41
2018-11-14T09:58:03.422Z,13.46
2018-11-14T10:00:33.825Z,13.43
2018-11-14T10:03:10.393Z,13.54
2018-11-14T10:05:40.361Z,13.38
2018-11-14T10:08:09.463Z,13.48
2018-11-14T10:10:38.600Z,13.49
2018-11-14T10:13:08.072Z,13.67
2018-11-14T10:15:37.781Z,13.53
2018-11-14T10:18:07.130Z,13.38
2018-11-14T10:20:36.472Z,12.89
2018-11-14T10:23:05.868Z,13.35
2018-11-14T10:25:35.173Z,13.55
2018-11-14T10:28:04.526Z,13.65
2018-11-14T10:30:33.811Z,13.62
2018-11-14T10:33:03.384Z,13.67
2018-11-14T10:35:32.491Z,13.73
2018-11-14T10:38:01.603Z,13.60
2018-11-14T10:40:30.819Z,13.44
2018-11-14T10:43:00.100Z,13.42
2018-11-14T10:45:29.103Z,13.44
2018-11-14T10:47:58.211Z,13.41
2018-11-14T10:50:27.968Z,13.54
2018-11-14T10:52:57.245Z,13.61
2018-11-14T10:55:26.897Z,13.65
2018-11-14T10:57:56.100Z,13.78
2018-11-14T11:00:32.534Z,13.90
2018-11-14T11:03:08.236Z,14.04
2018-11-14T11:05:44.567Z,14.19
2018-11-14T11:08:19.763Z,14.28
2018-11-14T11:10:54.409Z,14.17
2018-11-14T11:13:28.687Z,14.09
2018-11-14T11:16:02.943Z,14.23
2018-11-14T11:18:33.576Z,14.19
2018-11-14T11:21:02.700Z,14.21
2018-11-14T11:23:32.403Z,14.24
2018-11-14T11:26:01.547Z,14.06
2018-11-14T11:28:30.903Z,14.12
2018-11-14T11:31:00.232Z,14.29
2018-11-14T11:33:29.272Z,14.41
2018-11-14T11:35:58.457Z,14.44
2018-11-14T11:38:27.924Z,14.35
2018-11-14T11:40:57.024Z,14.36
2018-11-14T11:43:26.053Z,14.36
2018-11-14T11:45:55.616Z,14.11
2018-11-14T11:48:24.704Z,14.04
2018-11-14T11:50:53.829Z,14.16
2018-11-14T11:53:23.109Z,14.11
2018-11-14T11:55:52.135Z,14.23
2018-11-14T11:58:21.410Z,14.18
2018-11-14T12:00:50.989Z,14.12
2018-11-14T12:03:20.180Z,13.97
2018-11-14T12:05:49.424Z,13.74
2018-11-14T12:08:18.681Z,13.97
2018-11-14T12:10:47.888Z,14.10
2018-11-14T12:13:17.179Z,14.19
2018-11-14T12:15:46.458Z,14.26
2018-11-14T12:18:16.751Z,14.22
2018-11-14T12:20:46.389Z,13.70
2018-11-14T12:23:15.434Z,13.97
2018-11-14T12:25:44.589Z,13.93
2018-11-14T12:28:13.752Z,14.02
2018-11-14T12:30:43.042Z,14.09
2018-11-14T12:33:12.122Z,14.13
2018-11-14T12:35:41.525Z,13.79
2018-11-14T12:38:10.684Z,13.65
2018-11-14T12:40:39.701Z,13.68
2018-11-14T12:43:09.193Z,13.60
2018-11-14T12:45:38.384Z,13.67
2018-11-14T12:48:07.573Z,13.71
2018-11-14T12:50:36.712Z,13.73
2018-11-14T12:53:06.000Z,13.76
2018-11-14T12:55:35.104Z,13.71
2018-11-14T12:58:04.608Z,13.70
2018-11-14T13:00:33.689Z,13.68
2018-11-14T13:03:02.791Z,13.60
2018-11-14T13:05:32.152Z,13.60
2018-11-14T13:08:01.392Z,13.55
2018-11-14T13:10:30.595Z,13.52
2018-11-14T13:13:00.190Z,13.51
2018-11-14T13:15:29.345Z,13.46
2018-11-14T13:17:58.720Z,13.43
2018-11-14T13:20:28.052Z,13.41
2018-11-14T13:22:57.202Z,13.37
2018-11-14T13:25:26.356Z,13.39
2018-11-14T13:27:55.973Z,13.37
2018-11-14T13:30:25.449Z,13.32
2018-11-14T13:32:54.949Z,13.29
2018-11-14T13:35:24.704Z,13.34
2018-11-14T13:37:53.826Z,13.37
2018-11-14T13:40:22.920Z,13.34
2018-11-14T13:42:52.093Z,13.25
2018-11-14T13:45:21.248Z,13.17
2018-11-14T13:47:50.771Z,13.16
2018-11-14T13:50:21.853Z,13.09
2018-11-14T13:52:51.140Z,13.10
2018-11-14T13:55:21.270Z,13.04
2018-11-14T13:57:52.021Z,12.98
2018-11-14T14:00:22.200Z,12.84
2018-11-14T14:02:52.479Z,12.92
2018-11-14T14:05:22.830Z,12.87
2018-11-14T14:07:52.162Z,12.88
2018-11-14T14:10:21.460Z,12.91
2018-11-14T14:12:52.095Z,12.93
2018-11-14T14:15:22.499Z,12.97
2018-11-14T14:17:52.149Z,13.00
2018-11-14T14:20:21.989Z,13.01
2018-11-14T14:22:51.212Z,12.97
2018-11-14T14:25:21.267Z,12.96
2018-11-14T14:27:50.444Z,12.98
2018-11-14T14:30:20.954Z,12.97
2018-11-14T14:32:50.309Z,12.93
2018-11-14T14:35:20.672Z,12.94
2018-11-14T14:37:50.246Z,12.94
2018-11-14T14:47:06.030Z,12.80
2018-11-14T14:49:35.175Z,12.74
2018-11-14T14:52:04.271Z,12.71
2018-11-14T14:54:33.622Z,12.69
2018-11-14T14:57:02.786Z,12.66
2018-11-14T14:59:32.013Z,12.65
2018-11-14T15:02:01.801Z,12.63
2018-11-14T15:04:30.962Z,12.59
2018-11-14T15:07:00.258Z,12.60
2018-11-14T15:09:29.298Z,12.53
2018-11-14T15:11:58.539Z,12.52
2018-11-14T15:14:27.751Z,12.49
2018-11-14T15:16:57.155Z,12.48
2018-11-14T15:19:26.433Z,12.51
2018-11-14T15:21:55.663Z,12.46
2018-11-14T15:24:25.027Z,12.42
2018-11-14T15:26:54.146Z,12.42
2018-11-14T15:29:23.356Z,12.41
2018-11-14T15:31:52.680Z,12.37
2018-11-14T15:34:22.268Z,12.35
2018-11-14T15:36:51.408Z,12.35
2018-11-14T15:39:21.001Z,12.45
2018-11-14T15:41:50.132Z,12.42
2018-11-14T15:44:19.417Z,12.39
2018-11-14T15:46:48.879Z,12.37
2018-11-14T15:49:17.850Z,12.37
2018-11-14T15:51:47.148Z,12.35
2018-11-14T15:54:16.726Z,12.36
2018-11-14T15:56:45.874Z,12.35
2018-11-14T15:59:14.915Z,12.36
2018-11-14T16:01:44.283Z,12.37
2018-11-14T16:04:13.721Z,12.34
2018-11-14T16:06:42.797Z,12.36
2018-11-14T16:09:13.304Z,12.38
2018-11-14T16:11:42.591Z,12.41
2018-11-14T16:14:11.704Z,12.40
2018-11-14T16:16:41.236Z,12.44
2018-11-14T16:19:10.393Z,12.40
2018-11-14T16:22:42.218Z,12.39
2018-11-14T16:25:14.796Z,12.50
2018-11-14T16:27:45.217Z,12.43
2018-11-14T16:30:17.740Z,12.42
2018-11-14T16:32:48.436Z,12.42
2018-11-14T16:35:17.620Z,12.39
2018-11-14T16:37:46.696Z,12.35
2018-11-14T16:40:17.355Z,12.27
2018-11-14T16:42:46.603Z,12.29
2018-11-14T16:45:16.393Z,12.27
2018-11-14T16:47:45.892Z,12.29
2018-11-14T16:50:16.407Z,12.27
2018-11-14T16:52:45.558Z,12.27
2018-11-14T16:55:16.455Z,12.20
2018-11-14T16:57:46.418Z,12.30
2018-11-14T17:00:18.336Z,12.34
2018-11-14T17:02:48.573Z,12.28
2018-11-14T17:05:18.575Z,12.30
2018-11-14T17:07:47.744Z,12.30
2018-11-14T17:10:18.407Z,12.29
2018-11-14T17:12:48.693Z,12.29
2018-11-14T17:15:19.447Z,12.30
2018-11-14T17:17:48.587Z,12.35
2018-11-14T17:20:19.047Z,12.24
2018-11-14T17:22:48.828Z,12.28
2018-11-14T17:25:18.650Z,12.27
2018-11-14T17:27:48.036Z,12.25
2018-11-14T17:30:19.745Z,12.22
2018-11-14T17:32:48.829Z,12.24
2018-11-14T17:35:18.216Z,12.34
2018-11-14T17:37:47.857Z,12.39
2018-11-14T17:40:20.359Z,12.46
2018-11-14T17:42:50.851Z,12.44
2018-11-14T17:45:22.057Z,12.40
2018-11-14T17:47:51.545Z,12.35
2018-11-14T17:50:22.451Z,12.20
2018-11-14T17:52:53.004Z,12.09
2018-11-14T17:55:22.812Z,12.13
2018-11-14T17:57:52.016Z,12.18
2018-11-14T18:00:24.584Z,12.20
2018-11-14T18:02:53.826Z,12.18
2018-11-14T18:05:25.072Z,12.27
2018-11-14T18:07:54.671Z,12.19
2018-11-14T18:10:25.109Z,12.22
2018-11-14T18:12:55.594Z,12.25
2018-11-14T18:15:24.685Z,12.32
2018-11-14T18:17:54.444Z,12.30
2018-11-14T18:20:26.069Z,12.23
2018-11-14T18:22:55.507Z,12.07
2018-11-14T18:25:25.767Z,12.01
2018-11-14T18:27:54.969Z,12.06
2018-11-14T18:30:25.441Z,12.23
2018-11-14T18:32:55.710Z,12.21
2018-11-14T18:35:25.470Z,12.04
2018-11-14T18:37:55.296Z,12.08
2018-11-14T18:40:26.795Z,12.19
2018-11-14T18:42:56.059Z,12.12
2018-11-14T18:45:28.232Z,12.12
2018-11-14T18:47:58.406Z,12.00
2018-11-14T18:50:27.972Z,12.07
2018-11-14T18:52:57.281Z,12.06
2018-11-14T18:55:28.945Z,12.04
2018-11-14T18:57:58.880Z,12.10
2018-11-14T19:00:29.674Z,12.02
2018-11-14T19:02:59.054Z,11.92
2018-11-14T19:05:28.336Z,12.05
2018-11-14T19:07:57.952Z,12.03
2018-11-14T19:10:29.560Z,12.10
2018-11-14T19:12:59.028Z,12.10
2018-11-14T19:15:33.594Z,12.07
2018-11-14T19:18:02.926Z,12.09
2018-11-14T19:20:33.226Z,12.05
2018-11-14T19:23:03.090Z,12.11
2018-11-14T19:25:33.970Z,12.00
2018-11-14T19:28:03.653Z,11.96
2018-11-14T19:30:34.037Z,11.97
2018-11-14T19:33:03.656Z,12.05
2018-11-14T19:35:32.902Z,12.01
2018-11-14T19:38:02.373Z,12.02
2018-11-14T19:40:37.657Z,11.98
2018-11-14T19:43:11.312Z,11.95
2018-11-14T19:45:41.494Z,11.85
2018-11-14T19:48:10.921Z,11.84
2018-11-14T19:50:40.159Z,11.72
2018-11-14T19:53:09.804Z,11.72
2018-11-14T19:55:39.307Z,11.71
2018-11-14T19:58:08.426Z,11.66
2018-11-14T20:00:39.477Z,11.76
2018-11-14T20:03:09.416Z,11.71
2018-11-14T20:05:38.404Z,11.59
2018-11-14T20:08:07.923Z,11.62
2018-11-14T20:10:37.198Z,11.53
2018-11-14T20:13:06.553Z,11.62
2018-11-14T20:15:37.008Z,11.69
2018-11-14T20:18:06.748Z,11.69
2018-11-14T20:20:37.277Z,11.61
2018-11-14T20:23:06.571Z,11.59
2018-11-14T20:25:35.772Z,11.70
2018-11-14T20:28:05.232Z,11.79
2018-11-14T20:30:35.960Z,11.90
2018-11-14T20:33:07.551Z,11.90
2018-11-14T20:35:37.150Z,11.89
2018-11-14T20:38:06.479Z,11.95
2018-11-14T20:40:38.821Z,11.95
2018-11-14T20:43:08.291Z,11.92
2018-11-14T20:45:37.507Z,11.93
2018-11-14T20:48:07.008Z,11.99
2018-11-14T20:50:36.286Z,11.96
2018-11-14T20:53:05.913Z,11.99
2018-11-14T20:55:36.464Z,11.96
2018-11-14T20:58:05.744Z,12.03
2018-11-14T21:00:36.259Z,12.11
2018-11-14T21:03:06.254Z,12.18
2018-11-14T21:05:35.556Z,12.16
2018-11-14T21:08:04.920Z,12.18
2018-11-14T21:10:34.984Z,12.18
2018-11-14T21:13:04.959Z,12.14
2018-11-14T21:15:36.771Z,12.18
2018-11-14T21:18:06.177Z,12.21
2018-11-14T21:20:35.454Z,12.13
2018-11-14T21:23:05.805Z,12.20
2018-11-14T21:25:35.042Z,12.15
2018-11-14T21:28:04.384Z,12.20
2018-11-14T21:30:33.736Z,12.21
2018-11-14T21:33:02.977Z,12.21
2018-11-14T21:35:33.772Z,12.23
2018-11-14T21:38:04.343Z,12.24
2018-11-14T21:40:33.829Z,12.25
2018-11-14T21:43:03.004Z,12.25
2018-11-14T21:45:32.314Z,12.27
2018-11-14T21:48:06.525Z,12.32
2018-11-14T21:50:35.808Z,12.33
2018-11-14T21:53:05.049Z,12.33
2018-11-14T21:55:34.524Z,12.34
2018-11-14T21:58:03.854Z,12.32
2018-11-14T22:00:38.589Z,12.33
2018-11-14T22:03:09.085Z,12.31
2018-11-14T22:05:39.708Z,12.32
2018-11-14T22:08:08.903Z,12.30
2018-11-14T22:10:38.069Z,12.33
2018-11-14T22:13:07.557Z,12.31
2018-11-14T22:15:36.836Z,12.36
2018-11-14T22:18:06.170Z,12.39
2018-11-14T22:20:35.698Z,12.34
2018-11-14T22:23:04.927Z,12.35
2018-11-14T22:25:34.162Z,12.34
2018-11-14T22:28:03.530Z,12.38
2018-11-14T22:30:33.686Z,12.36
2018-11-14T22:33:02.836Z,12.35
2018-11-14T22:35:33.058Z,12.32
2018-11-14T22:38:02.281Z,12.31
2018-11-14T22:40:32.479Z,12.28
2018-11-14T22:43:01.728Z,12.27
2018-11-14T22:45:32.360Z,12.27
2018-11-14T22:48:01.492Z,12.27
2018-11-14T22:50:30.483Z,12.29
2018-11-14T22:52:59.719Z,12.33
2018-11-14T22:55:28.957Z,12.37
2018-11-14T22:57:58.031Z,12.38
2018-11-14T23:00:46.372Z,12.39
2018-11-14T23:03:15.429Z,12.36
2018-11-14T23:05:44.562Z,12.34
2018-11-14T23:08:13.679Z,12.31
2018-11-14T23:10:43.831Z,12.24
2018-11-14T23:13:13.100Z,12.21
2018-11-14T23:15:42.622Z,12.18
2018-11-14T23:18:11.700Z,12.10
2018-11-14T23:20:40.669Z,12.08
2018-11-14T23:23:10.000Z,12.08
2018-11-14T23:25:39.236Z,12.07
2018-11-14T23:28:08.569Z,12.05
2018-11-14T23:30:37.769Z,12.08
2018-11-14T23:33:06.878Z,12.11
2018-11-14T23:35:35.976Z,12.11
2018-11-14T23:38:06.324Z,12.09
2018-11-14T23:40:35.585Z,12.11
2018-11-14T23:43:04.753Z,12.08
2018-11-14T23:45:34.015Z,12.11
2018-11-14T23:48:03.308Z,12.09
2018-11-14T23:50:33.220Z,12.10
2018-11-14T23:53:03.852Z,12.05
2018-11-14T23:55:33.353Z,12.07
2018-11-14T23:58:02.620Z,12.04
